createdAt,value
2022-09-27T00:00:59.178Z,92881.00
2022-09-27T00:01:55.870Z,92885.56
2022-09-27T00:02:52.574Z,92884.44
2022-09-27T00:03:49.232Z,92885.22
2022-09-27T00:04:45.869Z,92889.81
2022-09-27T00:05:42.800Z,92879.06
2022-09-27T00:06:41.048Z,92872.53
2022-09-27T00:07:37.818Z,92883.28
2022-09-27T00:08:36.121Z,92886.34
2022-09-27T00:09:33.035Z,92893.63
2022-09-27T00:10:30.066Z,92878.31
2022-09-27T00:11:30.902Z,92884.06
2022-09-27T00:12:27.510Z,92889.81
2022-09-27T00:13:24.342Z,92878.31
2022-09-27T00:14:21.035Z,92894.41
2022-09-27T00:15:17.696Z,92894.78
2022-09-27T00:16:14.444Z,92887.50
2022-09-27T00:17:11.100Z,92891.72
2022-09-27T00:18:07.781Z,92897.06
2022-09-27T00:19:11.510Z,92894.81
2022-09-27T00:20:09.614Z,92899.78
2022-09-27T00:21:12.728Z,92906.66
2022-09-27T00:22:09.327Z,92902.84
2022-09-27T00:23:05.918Z,92902.84
2022-09-27T00:24:03.266Z,92899.03
2022-09-27T00:25:00.002Z,92900.13
2022-09-27T00:25:59.968Z,92888.63
2022-09-27T00:26:56.791Z,92904.34
2022-09-27T00:27:53.401Z,92895.91
2022-09-27T00:28:50.085Z,92908.56
2022-09-27T00:29:47.750Z,92905.50
2022-09-27T00:33:07.119Z,92901.69
2022-09-27T00:34:05.060Z,92916.63
2022-09-27T00:35:01.728Z,92915.84
2022-09-27T00:36:07.729Z,92913.53
2022-09-27T00:37:04.308Z,92906.66
2022-09-27T00:38:00.902Z,92905.50
2022-09-27T00:39:00.028Z,92910.09
2022-09-27T00:39:56.811Z,92912.00
2022-09-27T00:40:53.564Z,92915.47
2022-09-27T00:41:50.352Z,92911.59
2022-09-27T00:42:46.942Z,92908.56
2022-09-27T00:43:53.508Z,92900.53
2022-09-27T00:45:17.155Z,92892.50
2022-09-27T00:46:18.489Z,92893.63
2022-09-27T00:47:26.959Z,92897.09
2022-09-27T00:48:27.923Z,92894.00
2022-09-27T00:49:31.207Z,92895.16
2022-09-27T00:50:40.977Z,92887.50
2022-09-27T00:51:41.140Z,92892.09
2022-09-27T00:52:48.841Z,92889.03
2022-09-27T00:53:57.338Z,92886.38
2022-09-27T00:55:01.781Z,92881.75
2022-09-27T00:56:03.249Z,92888.66
2022-09-27T00:57:00.577Z,92879.47
2022-09-27T00:57:57.424Z,92875.63
2022-09-27T00:59:17.346Z,92871.78
2022-09-27T01:00:15.337Z,92869.47
2022-09-27T01:01:14.328Z,92868.75
2022-09-27T01:02:11.827Z,92861.44
2022-09-27T01:03:12.917Z,92865.28
2022-09-27T01:04:15.039Z,92859.16
2022-09-27T01:05:13.761Z,92848.81
2022-09-27T01:06:10.898Z,92874.47
2022-09-27T01:07:07.607Z,92854.97
2022-09-27T01:08:05.402Z,92864.16
2022-09-27T01:09:02.353Z,92862.19
2022-09-27T01:09:59.231Z,92859.56
2022-09-27T01:11:11.423Z,92864.53
2022-09-27T01:12:24.653Z,92859.19
2022-09-27T01:13:23.667Z,92862.63
2022-09-27T01:14:35.122Z,92845.78
2022-09-27T01:15:34.548Z,92856.09
2022-09-27T01:16:43.460Z,92851.50
2022-09-27T01:17:50.023Z,92837.75
2022-09-27T01:19:06.393Z,92844.63
2022-09-27T01:20:24.681Z,92841.56
2022-09-27T01:21:53.738Z,92842.34
2022-09-27T01:22:59.310Z,92831.25
2022-09-27T01:24:27.990Z,92835.81
2022-09-27T01:25:43.089Z,92838.13
2022-09-27T01:27:10.114Z,92840.41
2022-09-27T01:28:21.940Z,92844.59
2022-09-27T01:29:31.182Z,92844.22
2022-09-27T01:30:31.299Z,92843.06
2022-09-27T01:31:48.057Z,92843.09
2022-09-27T01:33:06.578Z,92845.41
2022-09-27T01:34:22.810Z,92841.16
2022-09-27T01:35:35.608Z,92842.69
2022-09-27T01:36:47.596Z,92838.09
2022-09-27T01:37:44.116Z,92840.78
2022-09-27T01:38:59.917Z,92845.00
2022-09-27T01:40:02.724Z,92835.06
2022-09-27T01:41:15.314Z,92831.59
2022-09-27T01:42:22.241Z,92830.81
2022-09-27T01:43:25.119Z,92836.22
2022-09-27T01:44:57.247Z,92837.75
2022-09-27T01:46:01.883Z,92838.91
2022-09-27T01:47:19.054Z,92834.66
2022-09-27T01:48:21.771Z,92831.22
2022-09-27T01:49:27.573Z,92841.19
2022-09-27T01:50:33.956Z,92833.91
2022-09-27T01:51:44.506Z,92829.69
2022-09-27T01:52:58.453Z,92835.44
2022-09-27T01:53:59.961Z,92836.16
2022-09-27T01:55:01.316Z,92836.97
2022-09-27T01:55:58.523Z,92838.13
2022-09-27T01:56:58.115Z,92830.44
2022-09-27T01:58:19.478Z,92830.03
2022-09-27T01:59:25.646Z,92825.84
2022-09-27T02:00:22.398Z,92822.81
2022-09-27T02:01:21.923Z,92823.56
2022-09-27T02:02:26.935Z,92824.66
2022-09-27T02:03:35.443Z,92823.13
2022-09-27T02:04:35.873Z,92817.38
2022-09-27T02:05:40.113Z,92826.91
2022-09-27T02:06:41.699Z,92816.16
2022-09-27T02:07:44.147Z,92823.44
2022-09-27T02:08:50.809Z,92823.06
2022-09-27T02:09:54.020Z,92823.81
2022-09-27T02:10:54.873Z,92820.00
2022-09-27T02:11:57.282Z,92826.41
2022-09-27T02:13:08.149Z,92828.78
2022-09-27T02:14:27.000Z,92817.28
2022-09-27T02:15:26.622Z,92820.03
2022-09-27T02:16:35.384Z,92822.19
2022-09-27T02:17:41.905Z,92818.41
2022-09-27T02:18:47.322Z,92810.72
2022-09-27T02:20:13.656Z,92807.28
2022-09-27T02:21:12.010Z,92816.09
2022-09-27T02:22:26.880Z,92810.63
2022-09-27T02:23:35.378Z,92810.25
2022-09-27T02:24:41.178Z,92812.97
2022-09-27T02:25:51.235Z,92807.63
2022-09-27T02:26:58.054Z,92784.72
2022-09-27T02:28:10.338Z,92789.91
2022-09-27T02:29:16.759Z,92758.63
2022-09-27T02:30:16.052Z,92776.59
2022-09-27T02:31:12.829Z,92778.72
2022-09-27T02:32:09.528Z,92780.28
2022-09-27T02:33:06.167Z,92780.41
2022-09-27T02:34:32.381Z,92772.84
2022-09-27T02:35:32.677Z,92775.09
2022-09-27T02:36:30.497Z,92767.03
2022-09-27T02:37:27.189Z,92767.78
2022-09-27T02:38:24.305Z,92763.50
2022-09-27T02:39:21.863Z,92767.75
2022-09-27T02:40:18.757Z,92764.72
2022-09-27T02:41:17.780Z,92760.03
2022-09-27T02:42:14.484Z,92751.75
2022-09-27T02:43:13.882Z,92751.72
2022-09-27T02:44:13.993Z,92774.41
2022-09-27T02:45:12.835Z,92775.19
2022-09-27T02:46:26.082Z,92770.94
2022-09-27T02:47:32.668Z,92775.09
2022-09-27T02:48:47.500Z,92763.72
2022-09-27T02:49:58.944Z,92775.53
2022-09-27T02:51:04.536Z,92785.06
2022-09-27T02:52:19.216Z,92791.63
2022-09-27T02:53:44.752Z,92781.25
2022-09-27T02:54:41.655Z,92785.47
2022-09-27T02:55:58.232Z,92784.63
2022-09-27T02:57:16.374Z,92792.34
2022-09-27T02:58:43.948Z,92794.63
2022-09-27T03:00:04.852Z,92776.69
2022-09-27T03:01:13.284Z,92782.66
2022-09-27T03:02:27.977Z,92776.91
2022-09-27T03:03:34.024Z,92775.06
2022-09-27T03:04:37.282Z,92769.69
2022-09-27T03:05:40.730Z,92765.00
2022-09-27T03:06:42.481Z,92767.38
2022-09-27T03:07:40.083Z,92760.91
2022-09-27T03:08:38.748Z,92756.38
2022-09-27T03:09:49.656Z,92760.59
2022-09-27T03:10:46.384Z,92766.28
2022-09-27T03:11:43.047Z,92755.97
2022-09-27T03:12:39.750Z,92757.44
2022-09-27T03:13:55.796Z,92742.09
2022-09-27T03:14:57.435Z,92739.47
2022-09-27T03:15:57.029Z,92718.06
2022-09-27T03:16:56.137Z,92719.47
2022-09-27T03:17:52.697Z,92715.69
2022-09-27T03:18:49.296Z,92719.16
2022-09-27T03:19:45.895Z,92712.63
2022-09-27T03:20:42.541Z,92712.16
2022-09-27T03:21:40.045Z,92702.28
2022-09-27T03:22:37.788Z,92713.47
2022-09-27T03:23:34.647Z,92702.69
2022-09-27T03:24:31.296Z,92708.31
2022-09-27T03:25:27.850Z,92709.00
2022-09-27T03:26:25.386Z,92694.56
2022-09-27T03:27:22.183Z,92704.91
2022-09-27T03:28:19.090Z,92709.53
2022-09-27T03:29:16.401Z,92711.91
2022-09-27T03:30:14.306Z,92714.06
2022-09-27T03:31:11.036Z,92702.66
2022-09-27T03:32:07.756Z,92696.97
2022-09-27T03:33:04.735Z,92697.28
2022-09-27T03:34:01.323Z,92706.91
2022-09-27T03:34:57.919Z,92706.53
2022-09-27T03:35:54.551Z,92700.41
2022-09-27T03:36:51.210Z,92701.56
2022-09-27T03:37:47.920Z,92703.94
2022-09-27T03:38:44.481Z,92697.34
2022-09-27T03:39:41.015Z,92693.47
2022-09-27T03:40:37.839Z,92696.56
2022-09-27T03:41:35.175Z,92701.91
2022-09-27T03:42:32.160Z,92704.88
2022-09-27T03:43:28.740Z,92700.34
2022-09-27T03:44:25.377Z,92693.06
2022-09-27T03:45:22.166Z,92671.28
2022-09-27T03:46:18.974Z,92692.66
2022-09-27T03:47:15.642Z,92688.84
2022-09-27T03:48:12.291Z,92683.41
2022-09-27T03:49:08.900Z,92687.28
2022-09-27T03:50:06.454Z,92687.00
2022-09-27T03:51:04.545Z,92687.78
2022-09-27T03:52:01.329Z,92685.47
2022-09-27T03:52:58.009Z,92684.34
2022-09-27T03:53:54.580Z,92685.88
2022-09-27T03:54:51.595Z,92688.19
2022-09-27T03:55:48.544Z,92688.97
2022-09-27T03:56:45.363Z,92677.53
2022-09-27T03:57:46.697Z,92699.31
2022-09-27T03:58:43.372Z,92686.66
2022-09-27T03:59:40.078Z,92697.41
2022-09-27T04:00:37.301Z,92710.09
2022-09-27T04:01:35.932Z,92707.38
2022-09-27T04:02:32.685Z,92701.22
2022-09-27T04:03:29.304Z,92701.66
2022-09-27T04:04:25.906Z,92706.63
2022-09-27T04:05:24.077Z,92688.94
2022-09-27T04:06:20.713Z,92716.78
2022-09-27T04:07:17.971Z,92713.72
2022-09-27T04:08:14.796Z,92706.59
2022-09-27T04:09:11.451Z,92712.78
2022-09-27T04:10:08.773Z,92715.09
2022-09-27T04:11:05.508Z,92720.41
2022-09-27T04:12:02.397Z,92721.97
2022-09-27T04:12:58.979Z,92721.59
2022-09-27T04:13:56.418Z,92722.78
2022-09-27T04:14:53.060Z,92729.28
2022-09-27T04:15:52.228Z,92716.28
2022-09-27T04:16:49.170Z,92722.72
2022-09-27T04:17:45.830Z,92717.81
2022-09-27T04:18:43.402Z,92704.38
2022-09-27T04:19:40.094Z,92713.63
2022-09-27T04:20:37.411Z,92705.16
2022-09-27T04:21:35.135Z,92712.06
2022-09-27T04:22:31.737Z,92705.97
2022-09-27T04:23:30.151Z,92670.81
2022-09-27T04:24:27.362Z,92705.25
2022-09-27T04:25:24.091Z,92714.84
2022-09-27T04:26:21.172Z,92701.44
2022-09-27T04:27:17.889Z,92713.69
2022-09-27T04:28:15.207Z,92713.69
2022-09-27T04:29:12.258Z,92710.28
2022-09-27T04:30:09.808Z,92697.69
2022-09-27T04:31:06.536Z,92704.16
2022-09-27T04:32:03.188Z,92690.03
2022-09-27T04:32:59.825Z,92702.59
2022-09-27T04:33:56.670Z,92704.53
2022-09-27T04:35:11.608Z,92699.53
2022-09-27T04:36:27.929Z,92707.97
2022-09-27T04:37:24.683Z,92697.22
2022-09-27T04:38:24.219Z,92710.97
2022-09-27T04:39:20.797Z,92708.25
2022-09-27T04:40:17.540Z,92713.97
2022-09-27T04:41:15.312Z,92722.56
2022-09-27T04:42:11.972Z,92718.97
2022-09-27T04:43:08.548Z,92720.06
2022-09-27T04:44:06.617Z,92713.16
2022-09-27T04:45:03.511Z,92715.56
2022-09-27T04:46:00.258Z,92715.28
2022-09-27T04:46:57.855Z,92678.06
2022-09-27T04:47:54.450Z,92708.63
2022-09-27T04:48:51.307Z,92716.69
2022-09-27T04:49:48.247Z,92704.44
2022-09-27T04:50:44.861Z,92711.25
2022-09-27T04:51:41.450Z,92705.56
2022-09-27T04:52:38.321Z,92702.16
2022-09-27T04:53:35.016Z,92709.78
2022-09-27T04:54:32.075Z,92708.66
2022-09-27T04:55:28.699Z,92712.91
2022-09-27T04:56:25.525Z,92712.50
2022-09-27T04:57:22.097Z,92714.38
2022-09-27T04:58:18.692Z,92717.38
2022-09-27T04:59:15.598Z,92705.91
2022-09-27T05:00:12.947Z,92715.81
2022-09-27T05:01:10.335Z,92723.41
2022-09-27T05:02:07.050Z,92723.03
2022-09-27T05:03:04.003Z,92725.75
2022-09-27T05:04:00.752Z,92729.56
2022-09-27T05:04:59.378Z,92722.66
2022-09-27T05:05:56.044Z,92721.88
2022-09-27T05:06:57.055Z,92722.38
2022-09-27T05:07:54.062Z,92716.72
2022-09-27T05:08:50.645Z,92718.63
2022-09-27T05:09:47.237Z,92714.44
2022-09-27T05:10:43.806Z,92711.34
2022-09-27T05:11:40.428Z,92720.88
2022-09-27T05:12:37.163Z,92719.69
2022-09-27T05:13:33.797Z,92715.03
2022-09-27T05:14:30.426Z,92720.75
2022-09-27T05:15:27.137Z,92710.09
2022-09-27T05:16:25.107Z,92703.22
2022-09-27T05:17:22.422Z,92699.84
2022-09-27T05:18:19.135Z,92700.50
2022-09-27T05:19:15.799Z,92698.97
2022-09-27T05:20:14.538Z,92705.38
2022-09-27T05:21:11.288Z,92704.63
2022-09-27T05:22:08.888Z,92701.16
2022-09-27T05:23:05.843Z,92709.25
2022-09-27T05:24:02.440Z,92704.31
2022-09-27T05:24:58.985Z,92708.88
2022-09-27T05:25:56.583Z,92701.25
2022-09-27T05:26:53.552Z,92698.47
2022-09-27T05:27:51.012Z,92692.66
2022-09-27T05:28:47.616Z,92699.03
2022-09-27T05:29:45.836Z,92695.50
2022-09-27T05:30:42.539Z,92691.72
2022-09-27T05:31:39.193Z,92687.84
2022-09-27T05:32:36.180Z,92679.75
2022-09-27T05:33:34.337Z,92682.78
2022-09-27T05:34:32.633Z,92685.13
2022-09-27T05:35:29.291Z,92675.63
2022-09-27T05:36:25.862Z,92683.31
2022-09-27T05:37:23.427Z,92687.47
2022-09-27T05:38:20.134Z,92689.97
2022-09-27T05:39:17.347Z,92665.00
2022-09-27T05:40:36.474Z,92683.75
2022-09-27T05:41:32.849Z,92673.94
2022-09-27T05:42:29.504Z,92688.53
2022-09-27T05:43:26.262Z,92679.13
2022-09-27T05:44:23.057Z,92676.91
2022-09-27T05:45:22.068Z,92678.81
2022-09-27T05:46:18.798Z,92690.31
2022-09-27T05:47:16.042Z,92692.66
2022-09-27T05:48:14.187Z,92687.22
2022-09-27T05:49:10.761Z,92694.53
2022-09-27T05:50:09.860Z,92686.88
2022-09-27T05:51:06.834Z,92695.31
2022-09-27T05:52:03.435Z,92709.91
2022-09-27T05:53:00.032Z,92697.63
2022-09-27T05:53:56.619Z,92700.72
2022-09-27T05:54:53.229Z,92696.47
2022-09-27T05:55:49.860Z,92685.34
2022-09-27T05:56:46.584Z,92687.25
2022-09-27T05:57:43.169Z,92698.38
2022-09-27T05:58:39.791Z,92699.94
2022-09-27T05:59:36.369Z,92711.06
2022-09-27T06:00:33.647Z,92706.13
2022-09-27T06:01:30.275Z,92707.66
2022-09-27T06:02:26.875Z,92716.06
2022-09-27T06:03:23.490Z,92717.56
2022-09-27T06:04:21.500Z,92710.28
2022-09-27T06:05:18.129Z,92708.00
2022-09-27T06:06:15.631Z,92697.69
2022-09-27T06:07:12.205Z,92705.31
2022-09-27T06:08:12.126Z,92691.16
2022-09-27T06:09:12.658Z,92696.53
2022-09-27T06:10:09.322Z,92687.75
2022-09-27T06:11:08.674Z,92699.47
2022-09-27T06:12:05.769Z,92698.72
2022-09-27T06:13:08.301Z,92688.47
2022-09-27T06:14:05.266Z,92691.09
2022-09-27T06:15:01.907Z,92692.66
2022-09-27T06:15:59.302Z,92693.63
2022-09-27T06:16:56.125Z,92690.97
2022-09-27T06:17:52.743Z,92688.25
2022-09-27T06:18:49.353Z,92676.91
2022-09-27T06:19:47.721Z,92691.38
2022-09-27T06:20:44.770Z,92695.69
2022-09-27T06:21:41.356Z,92703.66
2022-09-27T06:22:37.976Z,92706.38
2022-09-27T06:23:34.757Z,92708.63
2022-09-27T06:24:31.368Z,92704.09
2022-09-27T06:25:27.972Z,92714.84
2022-09-27T06:26:27.230Z,92710.28
2022-09-27T06:27:23.835Z,92704.91
2022-09-27T06:28:21.569Z,92709.91
2022-09-27T06:29:18.119Z,92701.91
2022-09-27T06:30:18.223Z,92699.91
2022-09-27T06:31:16.910Z,92689.25
2022-09-27T06:32:13.629Z,92695.19
2022-09-27T06:33:13.067Z,92687.53
2022-09-27T06:34:09.631Z,92682.97
2022-09-27T06:35:07.088Z,92671.88
2022-09-27T06:36:08.182Z,92683.81
2022-09-27T06:37:05.039Z,92682.97
2022-09-27T06:38:08.934Z,92687.34
2022-09-27T06:39:05.545Z,92663.69
2022-09-27T06:40:02.542Z,92677.69
2022-09-27T06:41:04.361Z,92689.88
2022-09-27T06:42:02.245Z,92683.69
2022-09-27T06:43:06.175Z,92698.38
2022-09-27T06:44:03.663Z,92704.09
2022-09-27T06:45:00.500Z,92699.59
2022-09-27T06:46:05.907Z,92710.69
2022-09-27T06:47:04.034Z,92698.78
2022-09-27T06:48:02.524Z,92705.28
2022-09-27T06:48:59.053Z,92693.06
2022-09-27T06:49:56.627Z,92693.91
2022-09-27T06:50:59.216Z,92695.31
2022-09-27T06:51:57.425Z,92694.19
2022-09-27T06:52:54.043Z,92692.22
2022-09-27T06:53:50.880Z,92704.97
2022-09-27T06:54:47.501Z,92695.22
2022-09-27T06:55:44.190Z,92700.84
2022-09-27T06:56:40.890Z,92699.25
2022-09-27T06:57:55.640Z,92692.31
2022-09-27T06:59:11.079Z,92683.59
2022-09-27T07:00:26.509Z,92677.00
2022-09-27T07:01:30.414Z,92677.81
2022-09-27T07:02:27.638Z,92678.16
2022-09-27T07:03:35.522Z,92669.72
2022-09-27T07:04:33.382Z,92676.91
2022-09-27T07:05:30.997Z,92683.69
2022-09-27T07:06:27.675Z,92684.56
2022-09-27T07:07:24.813Z,92688.28
2022-09-27T07:08:21.525Z,92694.00
2022-09-27T07:09:19.216Z,92701.25
2022-09-27T07:10:19.338Z,92697.88
2022-09-27T07:11:16.304Z,92699.22
2022-09-27T07:12:15.399Z,92712.47
2022-09-27T07:13:12.494Z,92720.25
2022-09-27T07:14:10.532Z,92716.38
2022-09-27T07:15:07.467Z,92727.44
2022-09-27T07:16:04.559Z,92728.28
2022-09-27T07:17:01.258Z,92725.75
2022-09-27T07:17:59.291Z,92732.63
2022-09-27T07:18:55.852Z,92730.63
2022-09-27T07:19:53.135Z,92737.84
2022-09-27T07:20:50.847Z,92730.84
2022-09-27T07:21:47.420Z,92732.78
2022-09-27T07:22:45.532Z,92724.44
2022-09-27T07:23:42.496Z,92736.13
2022-09-27T07:24:39.136Z,92741.16
2022-09-27T07:25:36.230Z,92737.69
2022-09-27T07:26:32.840Z,92739.13
2022-09-27T07:27:29.853Z,92743.72
2022-09-27T07:28:26.428Z,92733.75
2022-09-27T07:29:23.042Z,92733.75
2022-09-27T07:30:21.309Z,92731.72
2022-09-27T07:31:17.985Z,92732.47
2022-09-27T07:32:14.668Z,92742.13
2022-09-27T07:33:12.240Z,92731.81
2022-09-27T07:34:09.216Z,92727.16
2022-09-27T07:35:08.553Z,92725.53
2022-09-27T07:36:09.583Z,92726.38
2022-09-27T07:37:06.209Z,92690.22
2022-09-27T07:38:03.765Z,92724.53
2022-09-27T07:39:00.447Z,92724.56
2022-09-27T07:39:57.747Z,92728.88
2022-09-27T07:40:54.376Z,92722.53
2022-09-27T07:41:51.090Z,92705.44
2022-09-27T07:42:47.979Z,92715.28
2022-09-27T07:43:45.049Z,92717.94
2022-09-27T07:44:41.629Z,92710.97
2022-09-27T07:45:38.951Z,92697.94
2022-09-27T07:46:35.577Z,92687.50
2022-09-27T07:47:32.955Z,92694.41
2022-09-27T07:48:30.041Z,92688.00
2022-09-27T07:49:26.741Z,92685.75
2022-09-27T07:50:23.508Z,92682.13
2022-09-27T07:51:20.120Z,92682.09
2022-09-27T07:52:16.750Z,92684.50
2022-09-27T07:53:14.012Z,92687.38
2022-09-27T07:54:10.655Z,92695.84
2022-09-27T07:55:09.012Z,92687.22
2022-09-27T07:56:05.773Z,92694.00
2022-09-27T07:57:03.368Z,92702.16
2022-09-27T07:58:11.798Z,92712.84
2022-09-27T07:59:08.469Z,92714.03
2022-09-27T08:00:11.408Z,92714.16
2022-09-27T08:01:08.120Z,92723.97
2022-09-27T08:02:05.128Z,92720.94
2022-09-27T08:03:16.258Z,92727.88
2022-09-27T08:04:13.205Z,92725.09
2022-09-27T08:05:10.601Z,92727.34
2022-09-27T08:06:07.568Z,92742.13
2022-09-27T08:07:04.195Z,92739.75
2022-09-27T08:08:01.011Z,92730.28
2022-09-27T08:09:01.750Z,92727.84
2022-09-27T08:09:58.553Z,92726.56
2022-09-27T08:10:55.863Z,92735.03
2022-09-27T08:11:52.523Z,92730.13
2022-09-27T08:12:49.093Z,92732.19
2022-09-27T08:13:46.306Z,92727.41
2022-09-27T08:14:48.078Z,92730.16
2022-09-27T08:15:45.103Z,92733.88
2022-09-27T08:16:42.001Z,92736.41
2022-09-27T08:17:38.590Z,92735.59
2022-09-27T08:18:35.241Z,92739.44
2022-09-27T08:19:31.863Z,92722.81
2022-09-27T08:20:28.468Z,92720.28
2022-09-27T08:21:25.129Z,92720.16
2022-09-27T08:22:24.667Z,92715.69
2022-09-27T08:23:21.692Z,92711.22
2022-09-27T08:24:18.415Z,92703.66
2022-09-27T08:25:15.131Z,92699.31
2022-09-27T08:26:11.846Z,92709.31
2022-09-27T08:27:11.776Z,92699.44
2022-09-27T08:28:09.858Z,92695.06
2022-09-27T08:29:06.707Z,92680.41
2022-09-27T08:30:04.207Z,92697.94
2022-09-27T08:31:00.985Z,92696.53
2022-09-27T08:31:57.647Z,92698.25
2022-09-27T08:32:58.553Z,92704.44
2022-09-27T08:33:55.185Z,92694.31
2022-09-27T08:34:51.813Z,92694.16
2022-09-27T08:35:48.453Z,92692.75
2022-09-27T08:36:45.073Z,92688.19
2022-09-27T08:37:41.739Z,92695.94
2022-09-27T08:38:38.433Z,92684.03
2022-09-27T08:39:35.038Z,92675.91
2022-09-27T08:40:57.407Z,92684.53
2022-09-27T08:42:12.838Z,92680.16
2022-09-27T08:43:12.347Z,92671.13
2022-09-27T08:44:33.454Z,92671.56
2022-09-27T08:45:45.092Z,92667.97
2022-09-27T08:47:03.005Z,92673.34
2022-09-27T08:48:02.900Z,92675.09
2022-09-27T08:49:07.567Z,92652.22
2022-09-27T08:50:19.385Z,92664.59
2022-09-27T08:51:16.805Z,92665.22
2022-09-27T08:52:19.193Z,92650.56
2022-09-27T08:53:47.375Z,92653.41
2022-09-27T08:54:45.478Z,92663.59
2022-09-27T08:55:47.941Z,92668.56
2022-09-27T08:56:44.893Z,92664.34
2022-09-27T08:57:41.603Z,92665.72
2022-09-27T08:58:48.733Z,92671.72
2022-09-27T09:00:11.002Z,92680.84
2022-09-27T09:01:15.394Z,92678.91
2022-09-27T09:02:24.886Z,92671.56
2022-09-27T09:03:31.451Z,92669.91
2022-09-27T09:04:37.948Z,92659.31
2022-09-27T09:05:35.643Z,92666.41
2022-09-27T09:06:48.145Z,92659.66
2022-09-27T09:08:22.577Z,92663.13
2022-09-27T09:09:27.872Z,92672.66
2022-09-27T09:10:45.891Z,92675.25
2022-09-27T09:12:00.805Z,92677.84
2022-09-27T09:13:09.085Z,92682.84
2022-09-27T09:14:14.871Z,92693.09
2022-09-27T09:15:20.837Z,92696.81
2022-09-27T09:16:20.656Z,92695.19
2022-09-27T09:17:36.691Z,92693.97
2022-09-27T09:18:55.346Z,92697.28
2022-09-27T09:20:17.068Z,92697.88
2022-09-27T09:21:38.425Z,92683.78
2022-09-27T09:23:20.523Z,92694.69
2022-09-27T09:24:34.494Z,92703.56
2022-09-27T09:25:40.509Z,92683.31
2022-09-27T09:26:45.469Z,92668.44
2022-09-27T09:27:45.245Z,92685.25
2022-09-27T09:28:54.092Z,92690.19
2022-09-27T09:30:15.586Z,92691.88
2022-09-27T09:31:30.818Z,92681.81
2022-09-27T09:32:46.030Z,92689.50
2022-09-27T09:34:00.755Z,92685.31
2022-09-27T09:35:34.401Z,92673.72
2022-09-27T09:36:38.983Z,92678.13
2022-09-27T09:37:59.992Z,92681.19
2022-09-27T09:39:02.596Z,92664.41
2022-09-27T09:40:25.254Z,92669.59
2022-09-27T09:41:33.614Z,92670.00
2022-09-27T09:42:39.010Z,92671.66
2022-09-27T09:43:37.803Z,92668.09
2022-09-27T09:44:43.978Z,92669.50
2022-09-27T09:45:45.457Z,92667.69
2022-09-27T09:46:46.409Z,92666.03
2022-09-27T09:47:53.124Z,92663.53
2022-09-27T09:48:59.226Z,92659.59
2022-09-27T09:50:01.395Z,92665.19
2022-09-27T09:51:01.347Z,92671.34
2022-09-27T09:52:11.187Z,92667.41
2022-09-27T09:53:21.923Z,92669.44
2022-09-27T09:54:33.516Z,92660.69
2022-09-27T09:55:35.234Z,92657.19
2022-09-27T09:56:40.708Z,92667.41
2022-09-27T09:58:04.218Z,92680.75
2022-09-27T09:59:04.875Z,92673.38
2022-09-27T10:00:07.719Z,92673.50
2022-09-27T10:01:18.702Z,92657.06
2022-09-27T10:02:21.194Z,92665.19
2022-09-27T10:03:17.680Z,92667.28
2022-09-27T10:04:34.681Z,92669.13
2022-09-27T10:05:31.540Z,92666.88
2022-09-27T10:06:30.455Z,92652.69
2022-09-27T10:07:28.277Z,92660.38
2022-09-27T10:08:25.011Z,92667.56
2022-09-27T10:09:25.365Z,92653.50
2022-09-27T10:10:22.718Z,92664.19
2022-09-27T10:11:26.084Z,92673.66
2022-09-27T10:12:22.939Z,92668.69
2022-09-27T10:13:22.235Z,92662.34
2022-09-27T10:14:21.510Z,92662.59
2022-09-27T10:15:24.623Z,92667.47
2022-09-27T10:16:21.749Z,92668.16
2022-09-27T10:17:22.936Z,92659.25
2022-09-27T10:18:19.776Z,92659.72
2022-09-27T10:19:26.390Z,92667.97
2022-09-27T10:20:31.460Z,92664.06
2022-09-27T10:21:31.200Z,92657.31
2022-09-27T10:22:45.080Z,92652.56
2022-09-27T10:24:16.565Z,92651.56
2022-09-27T10:25:16.533Z,92635.03
2022-09-27T10:26:13.520Z,92647.25
2022-09-27T10:27:10.213Z,92638.25
2022-09-27T10:28:07.025Z,92640.63
2022-09-27T10:29:37.909Z,92641.34
2022-09-27T10:30:35.697Z,92631.19
2022-09-27T10:31:37.427Z,92635.50
2022-09-27T10:32:37.239Z,92632.19
2022-09-27T10:33:35.188Z,92641.53
2022-09-27T10:34:37.341Z,92631.72
2022-09-27T10:35:37.981Z,92629.66
2022-09-27T10:36:36.245Z,92635.41
2022-09-27T10:37:32.896Z,92637.25
2022-09-27T10:38:33.214Z,92633.19
2022-09-27T10:39:30.169Z,92634.38
2022-09-27T10:40:30.300Z,92631.97
2022-09-27T10:41:32.407Z,92635.50
2022-09-27T10:42:38.010Z,92639.44
2022-09-27T10:43:36.590Z,92637.78
2022-09-27T10:44:33.125Z,92630.41
2022-09-27T10:45:34.312Z,92629.66
2022-09-27T10:46:34.313Z,92620.91
2022-09-27T10:47:31.269Z,92610.41
2022-09-27T10:48:27.980Z,92610.44
2022-09-27T10:49:34.663Z,92613.72
2022-09-27T10:50:49.858Z,92605.28
2022-09-27T10:52:00.541Z,92618.06
2022-09-27T10:53:06.908Z,92610.59
2022-09-27T10:54:03.550Z,92625.84
2022-09-27T10:55:09.113Z,92628.47
2022-09-27T10:56:06.143Z,92622.91
2022-09-27T10:57:19.000Z,92622.66
2022-09-27T10:58:25.234Z,92617.84
2022-09-27T10:59:22.177Z,92619.16
2022-09-27T11:00:26.308Z,92611.25
2022-09-27T11:01:24.117Z,92614.59
2022-09-27T11:02:22.352Z,92617.28
2022-09-27T11:03:19.383Z,92614.84
2022-09-27T11:04:30.708Z,92605.75
2022-09-27T11:05:28.106Z,92609.91
2022-09-27T11:06:24.666Z,92606.47
2022-09-27T11:07:22.269Z,92603.31
2022-09-27T11:08:18.792Z,92607.31
2022-09-27T11:09:26.617Z,92607.38
2022-09-27T11:10:36.321Z,92599.88
2022-09-27T11:11:33.886Z,92602.88
2022-09-27T11:12:32.134Z,92603.56
2022-09-27T11:13:32.796Z,92602.53
2022-09-27T11:14:32.142Z,92588.69
2022-09-27T11:15:31.057Z,92593.63
2022-09-27T11:16:54.210Z,92593.19
2022-09-27T11:18:04.906Z,92594.97
2022-09-27T11:19:26.550Z,92598.56
2022-09-27T11:20:38.050Z,92604.84
2022-09-27T11:22:08.711Z,92601.41
2022-09-27T11:23:13.601Z,92598.56
2022-09-27T11:24:19.209Z,92594.31
2022-09-27T11:25:54.467Z,92589.94
2022-09-27T11:26:51.186Z,92588.63
2022-09-27T11:28:20.130Z,92587.28
2022-09-27T11:29:26.618Z,92589.41
2022-09-27T11:30:24.628Z,92583.75
2022-09-27T11:31:49.578Z,92583.59
2022-09-27T11:33:05.443Z,92587.09
2022-09-27T11:34:29.198Z,92598.00
2022-09-27T11:35:26.713Z,92589.00
2022-09-27T11:36:27.952Z,92576.47
2022-09-27T11:37:41.574Z,92575.34
2022-09-27T11:39:04.324Z,92580.25
2022-09-27T11:40:22.159Z,92564.03
2022-09-27T11:41:37.667Z,92568.88
2022-09-27T11:42:43.375Z,92563.78
2022-09-27T11:44:15.351Z,92563.38
2022-09-27T11:45:45.229Z,92567.97
2022-09-27T11:46:43.145Z,92577.00
2022-09-27T11:47:42.633Z,92562.63
2022-09-27T11:48:42.193Z,92564.56
2022-09-27T11:50:19.182Z,92569.69
2022-09-27T11:51:53.497Z,92571.34
2022-09-27T11:52:58.969Z,92565.50
2022-09-27T11:54:17.161Z,92560.06
2022-09-27T11:55:29.504Z,92541.22
2022-09-27T11:57:13.046Z,92554.28
2022-09-27T11:58:42.862Z,92543.63
2022-09-27T12:00:13.185Z,92544.78
2022-09-27T12:01:26.909Z,92540.31
2022-09-27T12:02:30.341Z,92542.19
2022-09-27T12:03:32.878Z,92542.03
2022-09-27T12:05:08.360Z,92540.78
2022-09-27T12:06:20.462Z,92539.06
2022-09-27T12:07:50.029Z,92532.28
2022-09-27T12:09:15.659Z,92523.59
2022-09-27T12:10:17.199Z,92509.16
2022-09-27T12:11:19.761Z,92518.94
2022-09-27T12:12:19.050Z,92530.50
2022-09-27T12:13:23.434Z,92508.75
2022-09-27T12:14:47.284Z,92508.19